Time;durP1;ratioP1;P1;durP2;ratioP2;P2;SDS_P1;SDS_P2;PMS_P1;PMS_P2;Temp;Humidity;BMP_temperature;BMP_pressure;BME280_temperature;BME280_humidity;BME280_pressure;Samples;Min_cycle;Max_cycle;Signal;HPM_P1;HPM_P2
2023/04/13 00:02:17;;;;;;;17.83;13.15;;;;;;;;;;6079774;23;20022;-83
2023/04/13 00:04:43;;;;;;;21.13;13.75;;;;;;;;;;6082873;23;20408;-83
2023/04/13 00:07:15;;;;;;;17.02;12.65;;;;;;;;;;6071995;23;20023;-82
2023/04/13 00:09:44;;;;;;;21.05;13.27;;;;;;;;;;6044222;23;20641;-81
2023/04/13 00:12:11;;;;;;;14.02;12.43;;;;;;;;;;6067204;23;20026;-81
2023/04/13 00:14:38;;;;;;;18.08;12.65;;;;;;;;;;6067424;23;20017;-81
2023/04/13 00:17:03;;;;;;;16.70;12.63;;;;;;;;;;6067133;23;20014;-81
2023/04/13 00:19:31;;;;;;;20.33;12.77;;;;;;;;;;6040929;23;20014;-80
2023/04/13 00:21:58;;;;;;;16.58;12.60;;;;;;;;;;6066160;23;20023;-81
2023/04/13 00:24:24;;;;;;;21.08;13.57;;;;;;;;;;6092759;23;20443;-81
2023/04/13 00:26:50;;;;;;;18.80;13.57;;;;;;;;;;6077198;23;20045;-82
2023/04/13 00:29:16;;;;;;;17.13;12.93;;;;;;;;;;6080648;23;20014;-82
2023/04/13 00:31:42;;;;;;;14.45;12.88;;;;;;;;;;6100509;23;20022;-82
2023/04/13 00:34:09;;;;;;;15.32;12.13;;;;;;;;;;6077739;23;20360;-83
2023/04/13 00:36:35;;;;;;;18.63;13.02;;;;;;;;;;6077964;23;20375;-82
2023/04/13 00:39:01;;;;;;;18.23;13.15;;;;;;;;;;6078218;23;20511;-82
2023/04/13 00:41:28;;;;;;;18.85;12.82;;;;;;;;;;6079467;23;20025;-82
2023/04/13 00:43:53;;;;;;;30.98;14.65;;;;;;;;;;6102254;23;20038;-82
2023/04/13 00:46:19;;;;;;;20.55;13.95;;;;;;;;;;6108704;23;20014;-81
2023/04/13 00:48:47;;;;;;;18.40;13.98;;;;;;;;;;6079618;23;20010;-81
2023/04/13 00:51:16;;;;;;;16.33;14.60;;;;;;;;;;6113988;23;20468;-81
2023/04/13 00:53:42;;;;;;;21.15;14.02;;;;;;;;;;6087498;23;20010;-82
2023/04/13 00:56:09;;;;;;;19.88;15.18;;;;;;;;;;6054650;23;20017;-79
2023/04/13 00:58:35;;;;;;;16.75;14.77;;;;;;;;;;6070995;23;20364;-79
2023/04/13 01:01:01;;;;;;;18.25;13.43;;;;;;;;;;6103413;23;20018;-81
2023/04/13 01:03:28;;;;;;;20.77;13.45;;;;;;;;;;6075098;23;20347;-80
2023/04/13 01:05:54;;;;;;;14.75;13.18;;;;;;;;;;6084069;23;20034;-81
2023/04/13 01:08:28;;;;;;;13.60;12.20;;;;;;;;;;6088821;23;20040;-80
2023/04/13 01:10:54;;;;;;;16.67;12.50;;;;;;;;;;6041779;23;20019;-80
2023/04/13 01:13:23;;;;;;;14.82;12.25;;;;;;;;;;6079651;23;20095;-79
2023/04/13 01:16:00;;;;;;;18.42;13.10;;;;;;;;;;6071864;23;20085;-79
2023/04/13 01:18:26;;;;;;;20.35;13.90;;;;;;;;;;6049086;23;20014;-80
2023/04/13 01:20:52;;;;;;;13.48;10.52;;;;;;;;;;6072536;23;20010;-80
2023/04/13 01:23:42;;;;;;;14.38;12.32;;;;;;;;;;6066401;23;20495;-79
2023/04/13 01:26:09;;;;;;;21.75;12.55;;;;;;;;;;6066106;23;20019;-79
2023/04/13 01:28:35;;;;;;;14.27;11.43;;;;;;;;;;6041540;23;20019;-80
2023/04/13 01:31:10;;;;;;;15.40;11.35;;;;;;;;;;6042268;23;20026;-79
2023/04/13 01:33:37;;;;;;;19.33;11.68;;;;;;;;;;6067057;23;20018;-79
2023/04/13 01:36:03;;;;;;;12.70;11.23;;;;;;;;;;6067108;23;20487;-79
2023/04/13 01:38:30;;;;;;;15.45;11.60;;;;;;;;;;6065547;23;20015;-80
2023/04/13 01:40:58;;;;;;;17.38;13.30;;;;;;;;;;6042824;23;20021;-80
2023/04/13 01:43:26;;;;;;;14.57;11.80;;;;;;;;;;6066121;23;20095;-80
2023/04/13 01:46:15;;;;;;;14.77;12.50;;;;;;;;;;6066248;23;20123;-80
2023/04/13 01:49:01;;;;;;;13.82;11.65;;;;;;;;;;6021788;23;20019;-79
2023/04/13 01:51:47;;;;;;;12.85;11.48;;;;;;;;;;6065741;23;20027;-80
2023/04/13 01:54:19;;;;;;;12.90;10.93;;;;;;;;;;6068201;23;20081;-81
2023/04/13 01:56:47;;;;;;;17.33;12.98;;;;;;;;;;6068117;23;20019;-81
2023/04/13 01:59:15;;;;;;;14.85;12.55;;;;;;;;;;6066059;23;20017;-80
2023/04/13 02:01:43;;;;;;;22.70;12.82;;;;;;;;;;6065307;23;20467;-79
2023/04/13 02:04:09;;;;;;;19.98;12.13;;;;;;;;;;6065750;23;20019;-80
2023/04/13 02:06:38;;;;;;;16.58;13.15;;;;;;;;;;6066432;23;20018;-80
2023/04/13 02:09:06;;;;;;;15.43;13.82;;;;;;;;;;6067665;23;20015;-81
2023/04/13 02:11:36;;;;;;;22.08;14.35;;;;;;;;;;6065668;23;20375;-81
2023/04/13 02:14:03;;;;;;;24.13;12.75;;;;;;;;;;6043512;23;20011;-81
2023/04/13 02:16:30;;;;;;;19.38;14.40;;;;;;;;;;6067018;23;20011;-82
2023/04/13 02:18:57;;;;;;;16.52;13.02;;;;;;;;;;6067959;23;20014;-81
2023/04/13 02:21:24;;;;;;;14.23;12.73;;;;;;;;;;6041190;23;20022;-81
2023/04/13 02:23:53;;;;;;;16.35;13.57;;;;;;;;;;6042451;23;20026;-82
2023/04/13 02:26:21;;;;;;;13.43;11.13;;;;;;;;;;6067086;23;20019;-81
2023/04/13 02:28:48;;;;;;;17.25;15.45;;;;;;;;;;6044887;23;20094;-81
2023/04/13 02:31:15;;;;;;;19.80;15.18;;;;;;;;;;6066141;23;20035;-81
2023/04/13 02:33:45;;;;;;;23.60;15.30;;;;;;;;;;6066430;23;20017;-81
2023/04/13 02:36:11;;;;;;;25.05;17.40;;;;;;;;;;6072953;23;20022;-82
2023/04/13 02:38:45;;;;;;;29.67;18.85;;;;;;;;;;6075950;23;20015;-82
2023/04/13 02:41:21;;;;;;;33.05;17.92;;;;;;;;;;6071341;23;20011;-80
2023/04/13 02:43:49;;;;;;;24.10;17.08;;;;;;;;;;6066770;23;20018;-80
2023/04/13 02:46:15;;;;;;;26.35;16.10;;;;;;;;;;6041760;23;20487;-80
2023/04/13 02:48:42;;;;;;;23.20;18.17;;;;;;;;;;6065403;23;20018;-80
2023/04/13 02:51:08;;;;;;;26.98;18.05;;;;;;;;;;6071598;23;20030;-81
2023/04/13 02:53:39;;;;;;;25.58;17.02;;;;;;;;;;6066634;23;20447;-79
2023/04/13 02:56:06;;;;;;;27.80;17.85;;;;;;;;;;6065175;23;20049;-80
2023/04/13 02:58:33;;;;;;;25.48;18.20;;;;;;;;;;6064135;23;20015;-80
2023/04/13 03:01:03;;;;;;;31.55;19.05;;;;;;;;;;6065571;23;20015;-80
2023/04/13 03:03:29;;;;;;;32.25;19.33;;;;;;;;;;6064873;23;20464;-79
2023/04/13 03:05:56;;;;;;;31.75;19.48;;;;;;;;;;6064502;23;20074;-79
2023/04/13 03:08:34;;;;;;;25.20;17.33;;;;;;;;;;6064237;23;20106;-79
2023/04/13 03:11:07;;;;;;;;;;;;;;;;;;6042301;23;20026;-79
2023/04/13 03:13:33;;;;;;;32.95;19.20;;;;;;;;;;6064221;23;19982;-79
2023/04/13 03:16:00;;;;;;;20.58;14.50;;;;;;;;;;6041024;23;20077;-80
2023/04/13 03:18:30;;;;;;;36.20;16.85;;;;;;;;;;6064547;23;20021;-80
2023/04/13 03:20:56;;;;;;;27.27;18.23;;;;;;;;;;6066374;23;20026;-79
2023/04/13 03:23:28;;;;;;;32.95;19.58;;;;;;;;;;6017800;23;20022;-79
2023/04/13 03:25:56;;;;;;;29.38;17.42;;;;;;;;;;6040565;23;20014;-79
2023/04/13 03:28:23;;;;;;;26.58;18.05;;;;;;;;;;6040975;23;20021;-78
2023/04/13 03:30:50;;;;;;;21.67;18.23;;;;;;;;;;6064242;23;20336;-80
2023/04/13 03:33:16;;;;;;;23.27;15.88;;;;;;;;;;6064495;23;20018;-79
2023/04/13 03:35:43;;;;;;;22.15;16.27;;;;;;;;;;6063856;23;20376;-78
2023/04/13 03:38:18;;;;;;;27.75;16.58;;;;;;;;;;6064724;23;20042;-79
2023/04/13 03:40:47;;;;;;;23.30;16.42;;;;;;;;;;6063912;23;20011;-79
2023/04/13 03:43:15;;;;;;;22.40;15.95;;;;;;;;;;6064401;23;20019;-77
2023/04/13 03:45:46;;;;;;;27.50;16.55;;;;;;;;;;6063810;23;20025;-77
2023/04/13 03:48:15;;;;;;;23.42;15.55;;;;;;;;;;6040708;23;20025;-79
2023/04/13 03:50:40;;;;;;;27.73;17.58;;;;;;;;;;6040305;23;20014;-81
2023/04/13 03:53:11;;;;;;;24.58;17.23;;;;;;;;;;6040834;23;20019;-81
2023/04/13 03:55:38;;;;;;;26.55;19.23;;;;;;;;;;6064527;23;20010;-80
2023/04/13 03:58:06;;;;;;;26.83;17.13;;;;;;;;;;6041014;23;20464;-81
2023/04/13 04:00:33;;;;;;;26.15;16.80;;;;;;;;;;6040759;23;20007;-80
2023/04/13 04:03:10;;;;;;;28.42;18.48;;;;;;;;;;6042766;23;20021;-80
2023/04/13 04:05:53;;;;;;;30.60;17.00;;;;;;;;;;6065156;23;20014;-80
2023/04/13 04:08:19;;;;;;;31.20;17.75;;;;;;;;;;6066488;23;20078;-78
2023/04/13 04:10:46;;;;;;;32.83;16.58;;;;;;;;;;6063199;23;20400;-78
2023/04/13 04:13:13;;;;;;;30.88;18.45;;;;;;;;;;6063688;23;20018;-79
2023/04/13 04:15:44;;;;;;;32.00;18.23;;;;;;;;;;6063811;23;20026;-79
2023/04/13 04:18:10;;;;;;;29.33;17.70;;;;;;;;;;6063235;23;20150;-79
2023/04/13 04:20:38;;;;;;;33.53;20.83;;;;;;;;;;6064007;23;20015;-80
2023/04/13 04:23:05;;;;;;;29.77;18.60;;;;;;;;;;6039882;23;20391;-79
2023/04/13 04:25:39;;;;;;;26.00;17.70;;;;;;;;;;6063055;23;20468;-78
2023/04/13 04:28:05;;;;;;;37.97;19.73;;;;;;;;;;6063092;23;20018;-78
2023/04/13 04:30:32;;;;;;;27.20;15.15;;;;;;;;;;6063803;23;20042;-81
2023/04/13 04:33:01;;;;;;;22.25;16.52;;;;;;;;;;6064179;23;20106;-80
2023/04/13 04:35:33;;;;;;;26.52;17.88;;;;;;;;;;6063354;23;20014;-80
2023/04/13 04:38:02;;;;;;;31.63;17.55;;;;;;;;;;6063993;23;20034;-70
2023/04/13 04:40:29;;;;;;;29.27;15.93;;;;;;;;;;6062944;23;20388;-71
2023/04/13 04:42:56;;;;;;;27.15;14.93;;;;;;;;;;6063453;23;20142;-71
2023/04/13 04:45:32;;;;;;;21.20;16.73;;;;;;;;;;6061803;23;20038;-72
2023/04/13 04:48:02;;;;;;;25.33;16.45;;;;;;;;;;6062406;23;20019;-72
2023/04/13 04:50:29;;;;;;;21.92;15.52;;;;;;;;;;6038488;23;20015;-71
2023/04/13 04:53:07;;;;;;;21.67;14.05;;;;;;;;;;6062389;23;20154;-71
2023/04/13 04:55:33;;;;;;;22.20;14.45;;;;;;;;;;6016797;23;20021;-72
2023/04/13 04:57:59;;;;;;;25.70;15.23;;;;;;;;;;6037256;23;20015;-70
2023/04/13 05:00:29;;;;;;;33.38;14.35;;;;;;;;;;6054318;23;20015;-70
2023/04/13 05:03:06;;;;;;;19.95;14.68;;;;;;;;;;6038302;23;20474;-71
2023/04/13 05:05:32;;;;;;;25.45;14.35;;;;;;;;;;6059398;23;20026;-71
2023/04/13 05:08:04;;;;;;;28.95;14.82;;;;;;;;;;6034768;23;20475;-71
2023/04/13 05:10:30;;;;;;;16.58;14.25;;;;;;;;;;6059971;23;20015;-69
2023/04/13 05:12:57;;;;;;;19.67;13.48;;;;;;;;;;6061134;23;20027;-69
2023/04/13 05:15:24;;;;;;;19.15;14.18;;;;;;;;;;6061436;23;20030;-69
2023/04/13 05:17:50;;;;;;;19.73;13.00;;;;;;;;;;6063638;23;20023;-71
2023/04/13 05:20:18;;;;;;;23.48;16.45;;;;;;;;;;6062300;23;20111;-69
2023/04/13 05:22:56;;;;;;;24.88;12.98;;;;;;;;;;6061345;23;20030;-70
2023/04/13 05:25:22;;;;;;;26.17;13.05;;;;;;;;;;6063392;23;20097;-69
2023/04/13 05:27:48;;;;;;;17.23;13.35;;;;;;;;;;6062699;23;20015;-69
2023/04/13 05:30:15;;;;;;;30.58;14.73;;;;;;;;;;6061725;23;20022;-69
2023/04/13 05:32:42;;;;;;;15.98;13.95;;;;;;;;;;6061665;23;20023;-70
2023/04/13 05:35:09;;;;;;;16.77;13.85;;;;;;;;;;6065514;23;20011;-71
2023/04/13 05:37:38;;;;;;;24.25;14.55;;;;;;;;;;6063306;23;20025;-69
2023/04/13 05:40:10;;;;;;;18.75;12.55;;;;;;;;;;6064404;23;20011;-71
2023/04/13 05:42:38;;;;;;;22.27;15.70;;;;;;;;;;6064875;23;20026;-71
2023/04/13 05:45:08;;;;;;;18.83;13.98;;;;;;;;;;6061947;23;20021;-71
2023/04/13 05:47:38;;;;;;;16.27;12.88;;;;;;;;;;6061350;23;20014;-71
2023/04/13 05:50:10;;;;;;;19.08;14.05;;;;;;;;;;6062987;23;20021;-71
2023/04/13 05:52:36;;;;;;;13.52;11.93;;;;;;;;;;6063202;23;20050;-71
2023/04/13 05:55:02;;;;;;;15.43;12.75;;;;;;;;;;6039317;23;20019;-70
2023/04/13 05:57:30;;;;;;;13.15;11.85;;;;;;;;;;6063882;23;20025;-71
2023/04/13 05:59:58;;;;;;;15.27;12.68;;;;;;;;;;6039487;23;20015;-71
2023/04/13 06:02:40;;;;;;;15.90;11.60;;;;;;;;;;6064270;23;20019;-72
2023/04/13 06:05:13;;;;;;;14.85;11.85;;;;;;;;;;6063960;23;20010;-72
2023/04/13 06:07:42;;;;;;;15.10;11.38;;;;;;;;;;6039265;23;20015;-71
2023/04/13 06:10:09;;;;;;;17.45;12.10;;;;;;;;;;6063543;23;20011;-72
2023/04/13 06:12:35;;;;;;;17.98;12.25;;;;;;;;;;6063211;23;20052;-71
2023/04/13 06:15:01;;;;;;;12.73;11.27;;;;;;;;;;6063789;23;20511;-71
2023/04/13 06:17:29;;;;;;;17.17;12.20;;;;;;;;;;6062033;23;20174;-71
2023/04/13 06:19:54;;;;;;;19.95;12.63;;;;;;;;;;6060514;23;20484;-71
2023/04/13 06:22:21;;;;;;;23.02;12.10;;;;;;;;;;6064656;23;20085;-72
2023/04/13 06:24:50;;;;;;;20.20;12.68;;;;;;;;;;6064722;23;20432;-72
2023/04/13 06:27:17;;;;;;;15.02;11.25;;;;;;;;;;6066814;23;20042;-72
2023/04/13 06:29:45;;;;;;;19.50;10.68;;;;;;;;;;6042253;23;20026;-72
2023/04/13 06:32:11;;;;;;;16.85;10.40;;;;;;;;;;6042835;23;20029;-72
2023/04/13 06:34:38;;;;;;;10.70;9.60;;;;;;;;;;6066310;23;20018;-72
2023/04/13 06:37:06;;;;;;;13.73;10.40;;;;;;;;;;6066699;23;20014;-72
2023/04/13 06:39:41;;;;;;;10.32;9.05;;;;;;;;;;6068780;23;20114;-72
2023/04/13 06:42:09;;;;;;;12.93;8.88;;;;;;;;;;6069378;23;20026;-72
2023/04/13 06:44:46;;;;;;;12.88;8.77;;;;;;;;;;6052487;23;20022;-71
2023/04/13 06:47:14;;;;;;;16.83;8.63;;;;;;;;;;6080774;23;20014;-71
2023/04/13 06:49:42;;;;;;;10.45;8.85;;;;;;;;;;6054638;23;20015;-71
2023/04/13 06:52:09;;;;;;;13.27;7.75;;;;;;;;;;6080784;23;20026;-71
2023/04/13 06:54:35;;;;;;;10.25;7.43;;;;;;;;;;6082228;23;20066;-72
2023/04/13 06:57:07;;;;;;;9.77;8.52;;;;;;;;;;6075733;23;20022;-72
2023/04/13 06:59:35;;;;;;;10.02;8.90;;;;;;;;;;6069621;23;20041;-72
2023/04/13 07:02:01;;;;;;;11.00;8.55;;;;;;;;;;6069708;23;20022;-72
2023/04/13 07:04:27;;;;;;;11.32;7.95;;;;;;;;;;6045198;23;20046;-72
2023/04/13 07:06:53;;;;;;;11.90;9.00;;;;;;;;;;6068498;23;20021;-72
2023/04/13 07:09:19;;;;;;;13.73;8.10;;;;;;;;;;6068397;23;20455;-72
2023/04/13 07:11:45;;;;;;;15.07;7.70;;;;;;;;;;6068361;23;20371;-73
2023/04/13 07:14:13;;;;;;;14.25;7.50;;;;;;;;;;6068734;23;20022;-74
2023/04/13 07:16:39;;;;;;;10.68;6.82;;;;;;;;;;6068546;23;20014;-73
2023/04/13 07:19:06;;;;;;;14.73;8.23;;;;;;;;;;6045296;23;20399;-72
2023/04/13 07:21:32;;;;;;;20.52;8.60;;;;;;;;;;6069367;23;20474;-73
2023/04/13 07:24:02;;;;;;;12.55;8.98;;;;;;;;;;6040323;23;20030;-73
2023/04/13 07:26:30;;;;;;;11.05;8.00;;;;;;;;;;6064705;23;20030;-74
2023/04/13 07:28:57;;;;;;;13.52;8.40;;;;;;;;;;6064241;23;20015;-73
2023/04/13 07:31:27;;;;;;;9.55;8.85;;;;;;;;;;6064005;23;20109;-71
2023/04/13 07:33:54;;;;;;;24.15;8.80;;;;;;;;;;6063777;23;20460;-72
2023/04/13 07:36:27;;;;;;;11.60;8.40;;;;;;;;;;6063921;23;20014;-72
2023/04/13 07:38:57;;;;;;;12.98;9.02;;;;;;;;;;6039511;23;20022;-72
2023/04/13 07:41:23;;;;;;;9.57;8.57;;;;;;;;;;6063541;23;20015;-72
2023/04/13 07:43:55;;;;;;;17.55;9.23;;;;;;;;;;6063279;23;20483;-72
2023/04/13 07:46:25;;;;;;;16.77;8.43;;;;;;;;;;6063442;23;20042;-71
2023/04/13 07:48:52;;;;;;;10.57;8.68;;;;;;;;;;6063465;23;20082;-72
2023/04/13 07:51:25;;;;;;;22.52;9.10;;;;;;;;;;6063325;23;20026;-71
2023/04/13 07:53:52;;;;;;;15.23;8.82;;;;;;;;;;6064943;23;20033;-72
2023/04/13 07:56:19;;;;;;;10.00;9.30;;;;;;;;;;6063509;23;20010;-72
2023/04/13 07:58:45;;;;;;;8.52;7.28;;;;;;;;;;6039183;23;20014;-71
2023/04/13 08:01:12;;;;;;;12.93;7.60;;;;;;;;;;6039518;23;20019;-72
2023/04/13 10:56:17;;;;;;;7.85;6.47;;;;;;;;;;6093597;23;20420;-71
2023/04/13 10:58:50;;;;;;;7.25;6.60;;;;;;;;;;6093699;23;20017;-70
2023/04/13 11:01:16;;;;;;;7.13;6.43;;;;;;;;;;6093709;23;20015;-72
2023/04/13 11:03:42;;;;;;;8.23;6.22;;;;;;;;;;6093715;23;20445;-71
2023/04/13 11:06:08;;;;;;;12.00;6.72;;;;;;;;;;6093331;23;20058;-71
2023/04/13 11:08:36;;;;;;;7.00;6.38;;;;;;;;;;6068498;23;20018;-72
2023/04/13 11:11:02;;;;;;;7.03;6.53;;;;;;;;;;6068882;23;20420;-71
2023/04/13 11:13:28;;;;;;;7.93;6.15;;;;;;;;;;6068337;23;20426;-71
2023/04/13 11:16:02;;;;;;;5.88;5.47;;;;;;;;;;6067801;23;20010;-71
2023/04/13 11:18:28;;;;;;;10.00;7.07;;;;;;;;;;6068673;23;20046;-71
2023/04/13 11:20:54;;;;;;;7.90;7.18;;;;;;;;;;6093199;23;20069;-72
2023/04/13 11:23:22;;;;;;;16.10;6.72;;;;;;;;;;6092927;23;20014;-71
2023/04/13 11:25:56;;;;;;;6.85;6.15;;;;;;;;;;6068346;23;20444;-71
2023/04/13 11:28:23;;;;;;;10.40;7.20;;;;;;;;;;6094024;23;20455;-72
2023/04/13 11:30:55;;;;;;;13.82;7.38;;;;;;;;;;6068358;23;20018;-71
2023/04/13 11:33:25;;;;;;;11.40;6.30;;;;;;;;;;6094117;23;20081;-71
2023/04/13 11:35:55;;;;;;;6.10;4.60;;;;;;;;;;6068202;23;20403;-71
2023/04/13 11:38:21;;;;;;;6.53;6.00;;;;;;;;;;6093641;23;20045;-72
2023/04/13 11:40:47;;;;;;;6.32;5.13;;;;;;;;;;6093441;23;20475;-71
2023/04/13 11:43:13;;;;;;;5.68;4.85;;;;;;;;;;6068228;23;20089;-72
2023/04/13 11:45:42;;;;;;;5.57;5.07;;;;;;;;;;6067815;23;20340;-71
2023/04/13 11:48:08;;;;;;;7.20;4.53;;;;;;;;;;6093417;23;20018;-72
2023/04/13 11:50:35;;;;;;;5.88;4.88;;;;;;;;;;6044377;23;20014;-71
2023/04/13 11:53:01;;;;;;;9.80;5.38;;;;;;;;;;6067782;23;20375;-71
2023/04/13 11:55:27;;;;;;;11.40;4.43;;;;;;;;;;6088980;23;20025;-71
2023/04/13 11:57:54;;;;;;;4.93;4.60;;;;;;;;;;6122476;23;20459;-71
2023/04/13 12:00:22;;;;;;;5.95;4.78;;;;;;;;;;6122958;23;20014;-71
2023/04/13 12:02:49;;;;;;;6.43;4.50;;;;;;;;;;6096449;23;20541;-71
2023/04/13 12:05:23;;;;;;;5.22;4.72;;;;;;;;;;6096990;23;20014;-72
2023/04/13 12:07:49;;;;;;;7.93;6.82;;;;;;;;;;6122521;23;20014;-72
2023/04/13 12:10:19;;;;;;;8.88;6.25;;;;;;;;;;6122097;23;20017;-72
2023/04/13 12:12:45;;;;;;;6.85;6.13;;;;;;;;;;6096522;23;20030;-72
2023/04/13 12:15:11;;;;;;;8.45;3.97;;;;;;;;;;6072180;23;20041;-72
2023/04/13 12:17:37;;;;;;;7.60;5.07;;;;;;;;;;6072417;23;20018;-72
2023/04/13 12:20:03;;;;;;;9.18;4.78;;;;;;;;;;6118959;23;20064;-72
2023/04/13 12:22:36;;;;;;;9.55;5.20;;;;;;;;;;6090707;23;20021;-72
2023/04/13 12:25:12;;;;;;;5.03;4.47;;;;;;;;;;6118449;23;20021;-72
2023/04/13 12:27:38;;;;;;;7.18;4.90;;;;;;;;;;6097716;23;20018;-71
2023/04/13 12:30:13;;;;;;;4.45;4.05;;;;;;;;;;6072823;23;20010;-73
2023/04/13 12:32:43;;;;;;;6.38;4.60;;;;;;;;;;6072051;23;20028;-72
2023/04/13 12:35:09;;;;;;;9.43;4.57;;;;;;;;;;6121484;23;20096;-72
2023/04/13 12:37:38;;;;;;;7.90;5.22;;;;;;;;;;6096562;23;20018;-72
2023/04/13 12:40:08;;;;;;;7.65;5.03;;;;;;;;;;6119814;23;20021;-72
2023/04/13 12:42:34;;;;;;;9.43;3.87;;;;;;;;;;6120364;23;20065;-72
2023/04/13 12:45:00;;;;;;;6.68;5.47;;;;;;;;;;6118670;23;20380;-72
2023/04/13 12:47:26;;;;;;;7.15;4.65;;;;;;;;;;6092375;23;20046;-71
2023/04/13 12:49:52;;;;;;;7.57;4.43;;;;;;;;;;6121374;23;20014;-72
2023/04/13 12:52:18;;;;;;;11.90;4.80;;;;;;;;;;6120851;23;20032;-71
2023/04/13 12:54:44;;;;;;;5.30;4.43;;;;;;;;;;6095146;23;20052;-71
2023/04/13 12:57:14;;;;;;;4.97;4.55;;;;;;;;;;6094867;23;20021;-73
2023/04/13 12:59:40;;;;;;;11.40;4.78;;;;;;;;;;6127450;23;20029;-71
2023/04/13 13:02:06;;;;;;;6.15;4.85;;;;;;;;;;6102453;23;20378;-71
2023/04/13 13:04:33;;;;;;;4.57;4.07;;;;;;;;;;6126804;23;20628;-71
2023/04/13 13:06:59;;;;;;;4.85;4.25;;;;;;;;;;6126818;23;20020;-71
2023/04/13 13:09:25;;;;;;;5.85;4.28;;;;;;;;;;6122653;23;20061;-71
2023/04/13 13:11:51;;;;;;;6.65;4.00;;;;;;;;;;6121999;23;20408;-72
2023/04/13 13:14:19;;;;;;;8.05;4.15;;;;;;;;;;6097069;23;20048;-74
2023/04/13 13:16:48;;;;;;;5.55;4.07;;;;;;;;;;6095870;23;20018;-72
2023/04/13 13:19:17;;;;;;;6.55;3.53;;;;;;;;;;6095285;23;20497;-72
2023/04/13 13:21:43;;;;;;;6.40;3.78;;;;;;;;;;6121158;23;20014;-72
2023/04/13 13:24:08;;;;;;;5.43;4.55;;;;;;;;;;6121008;23;20014;-71
2023/04/13 13:26:34;;;;;;;8.38;4.43;;;;;;;;;;6121587;23;20017;-70
2023/04/13 13:29:00;;;;;;;4.75;3.70;;;;;;;;;;6095898;23;20013;-71
2023/04/13 13:31:26;;;;;;;8.30;4.00;;;;;;;;;;6122030;23;20026;-74
2023/04/13 13:33:53;;;;;;;8.70;2.92;;;;;;;;;;6096264;23;20336;-72
2023/04/13 13:36:19;;;;;;;9.80;3.70;;;;;;;;;;6121572;23;20010;-72
2023/04/13 13:38:47;;;;;;;6.93;3.75;;;;;;;;;;6121726;23;20014;-72
2023/04/13 13:41:13;;;;;;;5.05;3.60;;;;;;;;;;6097664;23;20028;-72
2023/04/13 13:43:40;;;;;;;10.52;3.78;;;;;;;;;;6096580;23;20014;-71
2023/04/13 13:46:05;;;;;;;6.75;3.85;;;;;;;;;;6095983;23;20068;-73
2023/04/13 13:48:33;;;;;;;6.10;3.70;;;;;;;;;;6072891;23;20013;-71
2023/04/13 13:51:08;;;;;;;5.90;3.67;;;;;;;;;;6096051;23;20013;-72
2023/04/13 13:53:35;;;;;;;4.28;3.65;;;;;;;;;;6096784;23;20018;-72
2023/04/13 13:56:04;;;;;;;3.70;3.40;;;;;;;;;;6071081;23;20022;-72
2023/04/13 13:58:33;;;;;;;6.47;4.18;;;;;;;;;;6122834;23;20018;-71
2023/04/13 14:00:59;;;;;;;4.03;3.45;;;;;;;;;;6123601;23;20089;-72
2023/04/13 14:03:25;;;;;;;4.03;3.70;;;;;;;;;;6124183;23;20017;-72
2023/04/13 14:05:51;;;;;;;4.43;3.60;;;;;;;;;;6124213;23;20149;-72
2023/04/13 14:08:20;;;;;;;9.45;3.78;;;;;;;;;;6124005;23;20116;-71
2023/04/13 14:10:48;;;;;;;6.72;3.38;;;;;;;;;;6102933;23;20451;-71
2023/04/13 14:13:14;;;;;;;4.30;3.45;;;;;;;;;;6106946;23;20032;-72
2023/04/13 14:15:40;;;;;;;5.43;3.33;;;;;;;;;;6132880;23;20049;-71
2023/04/13 14:18:06;;;;;;;5.60;3.60;;;;;;;;;;6083729;23;20045;-71
2023/04/13 14:20:33;;;;;;;4.10;3.15;;;;;;;;;;6107843;23;20025;-72
2023/04/13 14:22:59;;;;;;;4.57;2.83;;;;;;;;;;6082073;23;20110;-72
2023/04/13 14:25:25;;;;;;;6.95;2.92;;;;;;;;;;6124740;23;20017;-69
2023/04/13 14:27:51;;;;;;;4.45;2.83;;;;;;;;;;6124881;23;20018;-72
2023/04/13 14:30:17;;;;;;;8.70;3.40;;;;;;;;;;6123102;23;20278;-71
2023/04/13 14:32:48;;;;;;;6.93;2.70;;;;;;;;;;6068597;23;20440;-72
2023/04/13 14:35:14;;;;;;;11.95;2.80;;;;;;;;;;6098142;23;20010;-73
2023/04/13 14:37:40;;;;;;;8.73;3.13;;;;;;;;;;6123698;23;20092;-72
2023/04/13 14:40:15;;;;;;;11.52;3.00;;;;;;;;;;6123637;23;20410;-72
2023/04/13 14:42:45;;;;;;;24.42;3.70;;;;;;;;;;6076126;23;20013;-71
2023/04/13 14:45:11;;;;;;;7.35;3.25;;;;;;;;;;6049967;23;20120;-72
2023/04/13 14:47:38;;;;;;;10.13;3.65;;;;;;;;;;6123633;23;20018;-72
2023/04/13 14:50:04;;;;;;;9.55;3.15;;;;;;;;;;6123065;23;20014;-70
2023/04/13 14:52:30;;;;;;;9.23;3.15;;;;;;;;;;6097127;23;20022;-71
2023/04/13 14:54:56;;;;;;;5.53;3.00;;;;;;;;;;6123442;23;20467;-71
2023/04/13 14:57:22;;;;;;;10.05;2.88;;;;;;;;;;6073326;23;20033;-72
2023/04/13 14:59:48;;;;;;;6.07;2.60;;;;;;;;;;6098957;23;20009;-72
2023/04/13 15:02:16;;;;;;;4.25;2.88;;;;;;;;;;6123603;23;20072;-72
2023/04/13 15:04:42;;;;;;;9.63;2.97;;;;;;;;;;6097596;23;20014;-72
2023/04/13 15:07:08;;;;;;;6.35;2.90;;;;;;;;;;6123320;23;20078;-72
2023/04/13 15:09:34;;;;;;;5.78;2.53;;;;;;;;;;6097684;23;20017;-71
2023/04/13 15:12:00;;;;;;;4.88;2.50;;;;;;;;;;6123416;23;20022;-71
2023/04/13 15:14:26;;;;;;;3.92;2.45;;;;;;;;;;6122914;23;20530;-71
2023/04/13 15:16:52;;;;;;;3.35;2.55;;;;;;;;;;6122197;23;20033;-71
2023/04/13 15:19:18;;;;;;;13.20;2.78;;;;;;;;;;6124260;23;20355;-72
2023/04/13 15:21:44;;;;;;;12.65;2.70;;;;;;;;;;6097830;23;20014;-72
2023/04/13 15:24:10;;;;;;;4.53;2.13;;;;;;;;;;6122878;23;20010;-72
2023/04/13 15:26:36;;;;;;;2.63;2.40;;;;;;;;;;6095237;23;20014;-71
2023/04/13 15:29:03;;;;;;;10.85;3.08;;;;;;;;;;6118005;23;20014;-71
2023/04/13 15:31:29;;;;;;;17.13;2.70;;;;;;;;;;6123077;23;20344;-71
2023/04/13 15:33:54;;;;;;;9.60;2.38;;;;;;;;;;6096980;23;20049;-71
2023/04/13 15:36:21;;;;;;;6.43;2.50;;;;;;;;;;6122603;23;20014;-71
2023/04/13 15:38:47;;;;;;;5.88;2.25;;;;;;;;;;6122959;23;20297;-71
2023/04/13 15:41:15;;;;;;;12.40;2.65;;;;;;;;;;6097469;23;20013;-70
2023/04/13 15:43:42;;;;;;;7.28;3.13;;;;;;;;;;6122640;23;20018;-71
2023/04/13 15:46:08;;;;;;;3.50;2.10;;;;;;;;;;6096694;23;20332;-72
2023/04/13 15:48:34;;;;;;;9.55;2.70;;;;;;;;;;6122532;23;20045;-71
2023/04/13 15:51:03;;;;;;;2.60;2.40;;;;;;;;;;6097553;23;20088;-71
2023/04/13 15:53:29;;;;;;;6.85;2.35;;;;;;;;;;6123069;23;20054;-71
2023/04/13 15:55:55;;;;;;;3.42;2.50;;;;;;;;;;6122987;23;20026;-70
2023/04/13 15:58:21;;;;;;;7.85;2.33;;;;;;;;;;6122594;23;20040;-70
2023/04/13 16:00:56;;;;;;;6.88;2.95;;;;;;;;;;6124602;23;20337;-70
2023/04/13 16:03:22;;;;;;;6.60;3.20;;;;;;;;;;6122353;23;20361;-71
2023/04/13 16:05:51;;;;;;;3.65;2.30;;;;;;;;;;6122957;23;20024;-71
2023/04/13 16:08:20;;;;;;;7.70;2.30;;;;;;;;;;6122071;23;20041;-71
2023/04/13 16:10:46;;;;;;;3.85;2.30;;;;;;;;;;6096864;23;20363;-71
2023/04/13 16:13:17;;;;;;;2.95;2.67;;;;;;;;;;6121804;23;20114;-71
2023/04/13 16:15:56;;;;;;;8.07;2.50;;;;;;;;;;6097368;23;20010;-71
2023/04/13 16:18:24;;;;;;;3.38;2.13;;;;;;;;;;6072470;23;20021;-71
2023/04/13 16:21:02;;;;;;;4.45;2.28;;;;;;;;;;6097044;23;20329;-71
2023/04/13 16:23:29;;;;;;;2.40;2.20;;;;;;;;;;6096147;23;20021;-71
2023/04/13 16:25:55;;;;;;;4.53;2.10;;;;;;;;;;6123185;23;20040;-70
2023/04/13 16:28:21;;;;;;;3.25;2.60;;;;;;;;;;6122683;23;20462;-71
2023/04/13 16:30:48;;;;;;;6.90;2.47;;;;;;;;;;6099397;23;20113;-70
2023/04/13 16:33:16;;;;;;;3.22;2.60;;;;;;;;;;6079442;23;20033;-71
2023/04/13 16:35:43;;;;;;;3.55;2.38;;;;;;;;;;6126147;23;20010;-70
2023/04/13 16:38:09;;;;;;;2.50;2.30;;;;;;;;;;6074962;23;20018;-70
2023/04/13 16:40:35;;;;;;;5.05;2.30;;;;;;;;;;6098264;23;20271;-71
2023/04/13 16:43:01;;;;;;;3.00;2.33;;;;;;;;;;6096394;23;20013;-71
2023/04/13 16:45:27;;;;;;;5.65;2.33;;;;;;;;;;6122310;23;20014;-70
2023/04/13 16:47:53;;;;;;;4.40;2.30;;;;;;;;;;6096588;23;20073;-70
2023/04/13 16:50:19;;;;;;;2.72;2.53;;;;;;;;;;6122162;23;20010;-71
2023/04/13 16:52:45;;;;;;;4.78;2.53;;;;;;;;;;6072445;23;20025;-70
2023/04/13 16:55:13;;;;;;;4.95;2.20;;;;;;;;;;6121825;23;20032;-71
2023/04/13 16:57:40;;;;;;;2.83;2.35;;;;;;;;;;6122357;23;20022;-71
2023/04/13 17:00:09;;;;;;;9.30;2.95;;;;;;;;;;6096433;23;20533;-70
2023/04/13 17:02:36;;;;;;;3.28;2.17;;;;;;;;;;6096459;23;20018;-70
2023/04/13 17:05:07;;;;;;;3.95;2.30;;;;;;;;;;6122258;23;20032;-71
2023/04/13 17:07:34;;;;;;;2.80;2.53;;;;;;;;;;6096850;23;20010;-70
2023/04/13 17:10:00;;;;;;;2.58;2.33;;;;;;;;;;6122274;23;20064;-70
2023/04/13 17:12:26;;;;;;;5.05;2.30;;;;;;;;;;6121907;23;20142;-69
2023/04/13 17:14:52;;;;;;;2.50;2.30;;;;;;;;;;6122473;23;20009;-70
2023/04/13 17:17:18;;;;;;;2.67;2.42;;;;;;;;;;6096150;23;20024;-70
2023/04/13 17:19:44;;;;;;;3.22;2.50;;;;;;;;;;6072347;23;20101;-71
2023/04/13 17:22:10;;;;;;;6.93;5.13;;;;;;;;;;6122002;23;20017;-70
2023/04/13 17:24:36;;;;;;;2.40;2.20;;;;;;;;;;6122939;23;20410;-70
2023/04/13 17:27:02;;;;;;;2.25;2.10;;;;;;;;;;6122170;23;20014;-70
2023/04/13 17:29:28;;;;;;;2.30;2.10;;;;;;;;;;6119498;23;20407;-71